Harney Peak, South Dakota
Current Conditions -  °F | °C
As of 2:53 PM on Wednesday 22 Oct 2014 (Local Time) from KCUT Reporting Station
Clear Clear  
Wind Chill: 55°   Ceiling: Unl
Heat Index: 55°   Visibility: 10mi
Dew Point: 24°   Wind: 10mph
Humidity: 30%   Direction: 300°WNW
Pressure: 30.04"   Gusts: 21mph
Location:  43.6653°N, 103.766°W
Report Text: KCUT 222053Z AUTO 30009G18KT 240V330 10SM CLR 13/M04 A3004 RMK AO2 SLP133 T01281044 56004
Loading
Personal Weather Stations






























Interactive Weather Map
Tropical Storm Tracking
New forecast layout! Learn more

10-Day Weather Forecast

Advertisements
Track Severe Weather on mobile